sensor_id;sensor_type;location;lat;lon;timestamp;P1;durP1;ratioP1;P2;durP2;ratioP2
39898;SDS011;25571;47.876;10.642;2023-03-01T00:01:21;20.67;;;13.98;;
39898;SDS011;25571;47.876;10.642;2023-03-01T00:03:49;21.15;;;14.90;;
39898;SDS011;25571;47.876;10.642;2023-03-01T00:06:15;19.67;;;14.10;;
39898;SDS011;25571;47.876;10.642;2023-03-01T00:08:41;22.15;;;14.45;;
39898;SDS011;25571;47.876;10.642;2023-03-01T00:11:17;21.75;;;13.93;;
39898;SDS011;25571;47.876;10.642;2023-03-01T00:13:46;19.90;;;13.20;;
39898;SDS011;25571;47.876;10.642;2023-03-01T00:16:24;17.70;;;12.75;;
39898;SDS011;25571;47.876;10.642;2023-03-01T00:19:00;18.67;;;12.38;;
39898;SDS011;25571;47.876;10.642;2023-03-01T00:21:26;20.67;;;13.50;;
39898;SDS011;25571;47.876;10.642;2023-03-01T00:23:52;21.08;;;13.63;;
39898;SDS011;25571;47.876;10.642;2023-03-01T00:26:19;19.10;;;13.20;;
39898;SDS011;25571;47.876;10.642;2023-03-01T00:28:46;19.73;;;13.98;;
39898;SDS011;25571;47.876;10.642;2023-03-01T00:31:13;19.08;;;13.25;;
39898;SDS011;25571;47.876;10.642;2023-03-01T00:33:44;23.10;;;14.65;;
39898;SDS011;25571;47.876;10.642;2023-03-01T00:36:10;23.15;;;15.95;;
39898;SDS011;25571;47.876;10.642;2023-03-01T00:38:37;22.92;;;15.18;;
39898;SDS011;25571;47.876;10.642;2023-03-01T00:41:04;21.95;;;13.82;;
39898;SDS011;25571;47.876;10.642;2023-03-01T00:43:31;22.00;;;13.75;;
39898;SDS011;25571;47.876;10.642;2023-03-01T00:46:01;18.25;;;13.25;;
39898;SDS011;25571;47.876;10.642;2023-03-01T00:48:31;20.17;;;13.80;;
39898;SDS011;25571;47.876;10.642;2023-03-01T00:51:03;19.85;;;13.15;;
39898;SDS011;25571;47.876;10.642;2023-03-01T00:53:30;18.45;;;12.32;;
39898;SDS011;25571;47.876;10.642;2023-03-01T00:55:56;23.77;;;15.57;;
39898;SDS011;25571;47.876;10.642;2023-03-01T00:58:22;22.40;;;14.48;;
39898;SDS011;25571;47.876;10.642;2023-03-01T01:00:48;20.02;;;14.02;;
39898;SDS011;25571;47.876;10.642;2023-03-01T01:03:14;23.63;;;15.65;;
39898;SDS011;25571;47.876;10.642;2023-03-01T01:05:40;21.52;;;14.48;;
39898;SDS011;25571;47.876;10.642;2023-03-01T01:08:05;17.73;;;12.57;;
39898;SDS011;25571;47.876;10.642;2023-03-01T01:10:33;24.70;;;14.77;;
39898;SDS011;25571;47.876;10.642;2023-03-01T01:12:59;20.50;;;15.00;;
39898;SDS011;25571;47.876;10.642;2023-03-01T01:15:25;22.77;;;15.38;;
39898;SDS011;25571;47.876;10.642;2023-03-01T01:17:51;21.52;;;14.55;;
39898;SDS011;25571;47.876;10.642;2023-03-01T01:20:16;22.08;;;14.45;;
39898;SDS011;25571;47.876;10.642;2023-03-01T01:22:42;19.73;;;14.35;;
39898;SDS011;25571;47.876;10.642;2023-03-01T01:25:08;22.70;;;14.48;;
39898;SDS011;25571;47.876;10.642;2023-03-01T01:27:33;19.80;;;14.57;;
39898;SDS011;25571;47.876;10.642;2023-03-01T01:29:59;16.95;;;13.13;;
39898;SDS011;25571;47.876;10.642;2023-03-01T01:32:25;23.02;;;15.55;;
39898;SDS011;25571;47.876;10.642;2023-03-01T01:34:50;26.40;;;17.40;;
39898;SDS011;25571;47.876;10.642;2023-03-01T01:37:16;24.27;;;16.15;;
39898;SDS011;25571;47.876;10.642;2023-03-01T01:39:41;26.65;;;17.38;;
39898;SDS011;25571;47.876;10.642;2023-03-01T01:42:12;25.42;;;16.15;;
39898;SDS011;25571;47.876;10.642;2023-03-01T01:44:42;25.90;;;17.55;;
39898;SDS011;25571;47.876;10.642;2023-03-01T01:47:20;21.05;;;14.60;;
39898;SDS011;25571;47.876;10.642;2023-03-01T01:49:53;23.83;;;15.40;;
39898;SDS011;25571;47.876;10.642;2023-03-01T01:52:21;23.38;;;16.83;;
39898;SDS011;25571;47.876;10.642;2023-03-01T01:57:45;21.30;;;15.27;;
39898;SDS011;25571;47.876;10.642;2023-03-01T02:00:14;25.50;;;16.42;;
39898;SDS011;25571;47.876;10.642;2023-03-01T02:02:46;22.52;;;14.65;;
39898;SDS011;25571;47.876;10.642;2023-03-01T02:08:19;25.08;;;17.02;;
39898;SDS011;25571;47.876;10.642;2023-03-01T02:10:46;26.33;;;17.60;;
39898;SDS011;25571;47.876;10.642;2023-03-01T02:13:14;24.17;;;15.35;;
39898;SDS011;25571;47.876;10.642;2023-03-01T02:15:40;23.70;;;15.07;;
39898;SDS011;25571;47.876;10.642;2023-03-01T02:18:06;21.20;;;14.70;;
39898;SDS011;25571;47.876;10.642;2023-03-01T02:23:02;25.98;;;16.13;;
39898;SDS011;25571;47.876;10.642;2023-03-01T02:30:41;28.13;;;17.55;;
39898;SDS011;25571;47.876;10.642;2023-03-01T02:33:29;23.02;;;15.43;;
39898;SDS011;25571;47.876;10.642;2023-03-01T02:36:01;29.00;;;16.75;;
39898;SDS011;25571;47.876;10.642;2023-03-01T02:38:32;27.10;;;17.60;;
39898;SDS011;25571;47.876;10.642;2023-03-01T02:40:58;24.75;;;16.00;;
39898;SDS011;25571;47.876;10.642;2023-03-01T02:43:26;25.42;;;15.75;;
39898;SDS011;25571;47.876;10.642;2023-03-01T02:45:57;24.63;;;16.27;;
39898;SDS011;25571;47.876;10.642;2023-03-01T02:48:24;30.92;;;18.17;;
39898;SDS011;25571;47.876;10.642;2023-03-01T02:53:36;26.67;;;18.00;;
39898;SDS011;25571;47.876;10.642;2023-03-01T02:56:10;28.48;;;18.40;;
39898;SDS011;25571;47.876;10.642;2023-03-01T02:58:38;31.70;;;17.90;;
39898;SDS011;25571;47.876;10.642;2023-03-01T03:01:11;24.45;;;16.45;;
39898;SDS011;25571;47.876;10.642;2023-03-01T03:03:39;27.00;;;17.33;;
39898;SDS011;25571;47.876;10.642;2023-03-01T03:06:06;28.15;;;17.27;;
39898;SDS011;25571;47.876;10.642;2023-03-01T03:08:31;26.40;;;16.27;;
39898;SDS011;25571;47.876;10.642;2023-03-01T03:10:57;28.10;;;15.55;;
39898;SDS011;25571;47.876;10.642;2023-03-01T03:13:23;23.98;;;15.55;;
39898;SDS011;25571;47.876;10.642;2023-03-01T03:15:53;27.55;;;17.77;;
39898;SDS011;25571;47.876;10.642;2023-03-01T03:18:20;27.20;;;17.48;;
39898;SDS011;25571;47.876;10.642;2023-03-01T03:20:46;29.42;;;18.48;;
39898;SDS011;25571;47.876;10.642;2023-03-01T03:23:12;25.42;;;16.17;;
39898;SDS011;25571;47.876;10.642;2023-03-01T03:25:38;23.20;;;15.30;;
39898;SDS011;25571;47.876;10.642;2023-03-01T03:28:04;30.02;;;18.70;;
39898;SDS011;25571;47.876;10.642;2023-03-01T03:30:34;30.23;;;18.50;;
39898;SDS011;25571;47.876;10.642;2023-03-01T03:33:04;27.13;;;18.48;;
39898;SDS011;25571;47.876;10.642;2023-03-01T03:35:31;32.53;;;18.13;;
39898;SDS011;25571;47.876;10.642;2023-03-01T03:37:59;26.75;;;15.98;;
39898;SDS011;25571;47.876;10.642;2023-03-01T03:40:26;29.45;;;18.02;;
39898;SDS011;25571;47.876;10.642;2023-03-01T03:42:53;27.73;;;16.27;;
39898;SDS011;25571;47.876;10.642;2023-03-01T03:45:19;24.73;;;15.93;;
39898;SDS011;25571;47.876;10.642;2023-03-01T03:47:45;24.92;;;16.15;;
39898;SDS011;25571;47.876;10.642;2023-03-01T03:50:12;28.83;;;16.05;;
39898;SDS011;25571;47.876;10.642;2023-03-01T03:52:39;24.77;;;16.08;;
39898;SDS011;25571;47.876;10.642;2023-03-01T03:55:05;32.10;;;20.00;;
39898;SDS011;25571;47.876;10.642;2023-03-01T03:57:35;24.85;;;15.68;;
39898;SDS011;25571;47.876;10.642;2023-03-01T04:00:05;26.75;;;16.08;;
39898;SDS011;25571;47.876;10.642;2023-03-01T04:02:38;22.48;;;14.63;;
39898;SDS011;25571;47.876;10.642;2023-03-01T04:05:08;27.88;;;16.40;;
39898;SDS011;25571;47.876;10.642;2023-03-01T04:07:35;29.10;;;18.77;;
39898;SDS011;25571;47.876;10.642;2023-03-01T04:10:02;27.05;;;16.45;;
39898;SDS011;25571;47.876;10.642;2023-03-01T04:12:29;24.58;;;17.48;;
39898;SDS011;25571;47.876;10.642;2023-03-01T04:14:54;32.38;;;19.85;;
39898;SDS011;25571;47.876;10.642;2023-03-01T04:17:20;28.48;;;17.13;;
39898;SDS011;25571;47.876;10.642;2023-03-01T04:19:45;25.98;;;16.52;;
39898;SDS011;25571;47.876;10.642;2023-03-01T04:22:13;27.05;;;16.50;;
39898;SDS011;25571;47.876;10.642;2023-03-01T04:24:43;27.98;;;17.10;;
39898;SDS011;25571;47.876;10.642;2023-03-01T04:27:09;22.50;;;14.18;;
39898;SDS011;25571;47.876;10.642;2023-03-01T04:29:35;27.63;;;16.50;;
39898;SDS011;25571;47.876;10.642;2023-03-01T04:32:01;25.33;;;16.02;;
39898;SDS011;25571;47.876;10.642;2023-03-01T04:34:27;30.17;;;18.40;;
39898;SDS011;25571;47.876;10.642;2023-03-01T04:36:54;26.20;;;15.82;;
39898;SDS011;25571;47.876;10.642;2023-03-01T04:39:20;31.58;;;18.15;;
39898;SDS011;25571;47.876;10.642;2023-03-01T04:41:46;29.70;;;19.60;;
39898;SDS011;25571;47.876;10.642;2023-03-01T04:44:11;30.20;;;17.15;;
39898;SDS011;25571;47.876;10.642;2023-03-01T04:46:37;26.30;;;16.58;;
39898;SDS011;25571;47.876;10.642;2023-03-01T04:49:03;28.45;;;17.30;;
39898;SDS011;25571;47.876;10.642;2023-03-01T04:51:30;23.88;;;14.85;;
39898;SDS011;25571;47.876;10.642;2023-03-01T04:53:57;26.00;;;16.27;;
39898;SDS011;25571;47.876;10.642;2023-03-01T04:56:23;27.45;;;16.60;;
39898;SDS011;25571;47.876;10.642;2023-03-01T04:58:48;25.67;;;17.00;;
39898;SDS011;25571;47.876;10.642;2023-03-01T05:01:18;26.95;;;17.35;;
39898;SDS011;25571;47.876;10.642;2023-03-01T05:03:45;27.35;;;16.33;;
39898;SDS011;25571;47.876;10.642;2023-03-01T05:06:15;25.20;;;16.00;;
39898;SDS011;25571;47.876;10.642;2023-03-01T05:08:42;27.23;;;15.85;;
39898;SDS011;25571;47.876;10.642;2023-03-01T05:11:09;29.77;;;18.33;;
39898;SDS011;25571;47.876;10.642;2023-03-01T05:13:36;31.50;;;19.63;;
39898;SDS011;25571;47.876;10.642;2023-03-01T05:16:03;26.10;;;17.30;;
39898;SDS011;25571;47.876;10.642;2023-03-01T05:18:31;28.85;;;17.02;;
39898;SDS011;25571;47.876;10.642;2023-03-01T05:21:02;32.53;;;18.70;;
39898;SDS011;25571;47.876;10.642;2023-03-01T05:23:30;30.42;;;17.50;;
39898;SDS011;25571;47.876;10.642;2023-03-01T05:25:59;30.08;;;18.30;;
39898;SDS011;25571;47.876;10.642;2023-03-01T05:28:26;28.10;;;17.90;;
39898;SDS011;25571;47.876;10.642;2023-03-01T05:30:55;25.15;;;16.40;;
39898;SDS011;25571;47.876;10.642;2023-03-01T05:33:22;29.85;;;18.45;;
39898;SDS011;25571;47.876;10.642;2023-03-01T05:35:50;30.35;;;19.00;;
39898;SDS011;25571;47.876;10.642;2023-03-01T05:38:17;28.45;;;17.85;;
39898;SDS011;25571;47.876;10.642;2023-03-01T05:40:43;24.23;;;15.00;;
39898;SDS011;25571;47.876;10.642;2023-03-01T05:43:10;28.23;;;17.50;;
39898;SDS011;25571;47.876;10.642;2023-03-01T05:45:37;31.67;;;19.10;;
39898;SDS011;25571;47.876;10.642;2023-03-01T05:48:04;29.60;;;19.58;;
39898;SDS011;25571;47.876;10.642;2023-03-01T05:50:38;29.13;;;17.45;;
39898;SDS011;25571;47.876;10.642;2023-03-01T05:53:13;28.30;;;17.85;;
39898;SDS011;25571;47.876;10.642;2023-03-01T05:55:40;36.17;;;20.25;;
39898;SDS011;25571;47.876;10.642;2023-03-01T05:58:07;27.75;;;17.33;;
39898;SDS011;25571;47.876;10.642;2023-03-01T06:00:35;32.75;;;19.70;;
39898;SDS011;25571;47.876;10.642;2023-03-01T06:03:01;28.58;;;17.50;;
39898;SDS011;25571;47.876;10.642;2023-03-01T06:05:27;25.67;;;17.23;;
39898;SDS011;25571;47.876;10.642;2023-03-01T06:07:53;31.10;;;18.02;;
39898;SDS011;25571;47.876;10.642;2023-03-01T06:10:20;27.83;;;17.52;;
39898;SDS011;25571;47.876;10.642;2023-03-01T06:12:46;27.23;;;16.98;;
39898;SDS011;25571;47.876;10.642;2023-03-01T06:15:13;27.17;;;17.67;;
39898;SDS011;25571;47.876;10.642;2023-03-01T06:17:40;27.67;;;16.95;;
39898;SDS011;25571;47.876;10.642;2023-03-01T06:20:17;32.63;;;19.35;;
39898;SDS011;25571;47.876;10.642;2023-03-01T06:22:45;28.63;;;18.77;;
39898;SDS011;25571;47.876;10.642;2023-03-01T06:25:12;30.17;;;16.77;;
39898;SDS011;25571;47.876;10.642;2023-03-01T06:27:39;31.23;;;19.02;;
39898;SDS011;25571;47.876;10.642;2023-03-01T06:30:06;26.58;;;15.73;;
39898;SDS011;25571;47.876;10.642;2023-03-01T06:32:32;30.15;;;19.17;;
39898;SDS011;25571;47.876;10.642;2023-03-01T06:34:58;26.52;;;17.15;;
39898;SDS011;25571;47.876;10.642;2023-03-01T06:37:27;26.83;;;17.05;;
39898;SDS011;25571;47.876;10.642;2023-03-01T06:39:52;26.00;;;15.93;;
39898;SDS011;25571;47.876;10.642;2023-03-01T06:42:18;29.63;;;17.38;;
39898;SDS011;25571;47.876;10.642;2023-03-01T06:44:44;30.15;;;17.95;;
39898;SDS011;25571;47.876;10.642;2023-03-01T06:47:10;27.80;;;16.77;;
39898;SDS011;25571;47.876;10.642;2023-03-01T06:49:36;27.30;;;17.33;;
39898;SDS011;25571;47.876;10.642;2023-03-01T06:52:02;26.08;;;17.25;;
39898;SDS011;25571;47.876;10.642;2023-03-01T06:54:27;28.50;;;18.25;;
39898;SDS011;25571;47.876;10.642;2023-03-01T06:56:53;25.23;;;16.40;;
39898;SDS011;25571;47.876;10.642;2023-03-01T06:59:19;29.90;;;17.67;;
39898;SDS011;25571;47.876;10.642;2023-03-01T07:01:44;27.58;;;17.27;;
39898;SDS011;25571;47.876;10.642;2023-03-01T07:04:10;30.38;;;18.92;;
39898;SDS011;25571;47.876;10.642;2023-03-01T07:06:37;29.60;;;17.08;;
39898;SDS011;25571;47.876;10.642;2023-03-01T07:09:03;27.75;;;17.10;;
39898;SDS011;25571;47.876;10.642;2023-03-01T07:11:28;24.90;;;15.60;;
39898;SDS011;25571;47.876;10.642;2023-03-01T07:13:54;25.02;;;15.35;;
39898;SDS011;25571;47.876;10.642;2023-03-01T07:16:20;30.27;;;17.35;;
39898;SDS011;25571;47.876;10.642;2023-03-01T07:18:45;25.00;;;15.60;;
39898;SDS011;25571;47.876;10.642;2023-03-01T07:21:12;24.17;;;15.55;;
39898;SDS011;25571;47.876;10.642;2023-03-01T07:23:39;25.48;;;16.23;;
39898;SDS011;25571;47.876;10.642;2023-03-01T07:26:05;25.35;;;16.63;;
39898;SDS011;25571;47.876;10.642;2023-03-01T07:28:30;25.05;;;15.75;;
39898;SDS011;25571;47.876;10.642;2023-03-01T07:31:01;22.33;;;15.23;;
39898;SDS011;25571;47.876;10.642;2023-03-01T07:33:27;23.45;;;16.05;;
39898;SDS011;25571;47.876;10.642;2023-03-01T07:35:57;24.02;;;14.77;;
39898;SDS011;25571;47.876;10.642;2023-03-01T07:38:28;26.17;;;15.73;;
39898;SDS011;25571;47.876;10.642;2023-03-01T07:40:57;27.92;;;17.70;;
39898;SDS011;25571;47.876;10.642;2023-03-01T07:43:27;24.02;;;15.48;;
39898;SDS011;25571;47.876;10.642;2023-03-01T07:45:53;25.30;;;15.20;;
39898;SDS011;25571;47.876;10.642;2023-03-01T07:48:19;21.42;;;14.35;;
39898;SDS011;25571;47.876;10.642;2023-03-01T07:50:44;22.83;;;14.75;;
39898;SDS011;25571;47.876;10.642;2023-03-01T07:53:10;24.52;;;16.23;;
39898;SDS011;25571;47.876;10.642;2023-03-01T07:55:36;25.25;;;14.88;;
39898;SDS011;25571;47.876;10.642;2023-03-01T07:58:02;24.63;;;15.73;;
39898;SDS011;25571;47.876;10.642;2023-03-01T08:00:28;23.02;;;15.55;;
39898;SDS011;25571;47.876;10.642;2023-03-01T08:02:54;26.98;;;16.48;;
39898;SDS011;25571;47.876;10.642;2023-03-01T08:05:19;25.58;;;16.70;;
39898;SDS011;25571;47.876;10.642;2023-03-01T08:07:47;25.98;;;16.80;;
39898;SDS011;25571;47.876;10.642;2023-03-01T08:10:12;26.70;;;17.50;;
39898;SDS011;25571;47.876;10.642;2023-03-01T08:12:38;29.33;;;18.83;;
39898;SDS011;25571;47.876;10.642;2023-03-01T08:15:04;29.50;;;17.35;;
39898;SDS011;25571;47.876;10.642;2023-03-01T08:17:29;23.52;;;15.93;;
39898;SDS011;25571;47.876;10.642;2023-03-01T08:19:55;25.60;;;16.88;;
39898;SDS011;25571;47.876;10.642;2023-03-01T08:22:21;23.88;;;14.95;;
39898;SDS011;25571;47.876;10.642;2023-03-01T08:24:46;23.00;;;14.73;;
39898;SDS011;25571;47.876;10.642;2023-03-01T08:27:12;22.52;;;15.07;;
39898;SDS011;25571;47.876;10.642;2023-03-01T08:29:39;26.73;;;16.60;;
39898;SDS011;25571;47.876;10.642;2023-03-01T08:32:05;23.75;;;14.40;;
39898;SDS011;25571;47.876;10.642;2023-03-01T08:34:30;22.08;;;13.68;;
39898;SDS011;25571;47.876;10.642;2023-03-01T08:36:56;22.40;;;15.38;;
39898;SDS011;25571;47.876;10.642;2023-03-01T08:39:22;24.23;;;15.32;;
39898;SDS011;25571;47.876;10.642;2023-03-01T08:41:48;21.35;;;13.88;;
39898;SDS011;25571;47.876;10.642;2023-03-01T08:44:14;21.30;;;14.43;;
39898;SDS011;25571;47.876;10.642;2023-03-01T08:46:43;27.95;;;17.23;;
39898;SDS011;25571;47.876;10.642;2023-03-01T08:49:13;28.67;;;17.03;;
39898;SDS011;25571;47.876;10.642;2023-03-01T08:51:41;21.00;;;14.10;;
39898;SDS011;25571;47.876;10.642;2023-03-01T08:54:09;21.98;;;15.20;;
39898;SDS011;25571;47.876;10.642;2023-03-01T08:56:37;22.90;;;15.18;;
39898;SDS011;25571;47.876;10.642;2023-03-01T08:59:02;24.85;;;15.55;;
39898;SDS011;25571;47.876;10.642;2023-03-01T09:01:28;19.17;;;12.98;;
39898;SDS011;25571;47.876;10.642;2023-03-01T09:03:54;23.08;;;15.00;;
39898;SDS011;25571;47.876;10.642;2023-03-01T09:06:19;24.98;;;15.48;;
39898;SDS011;25571;47.876;10.642;2023-03-01T09:08:46;21.08;;;14.32;;
39898;SDS011;25571;47.876;10.642;2023-03-01T09:11:15;24.63;;;16.38;;
39898;SDS011;25571;47.876;10.642;2023-03-01T09:13:43;25.33;;;15.93;;
39898;SDS011;25571;47.876;10.642;2023-03-01T09:16:10;22.42;;;14.88;;
39898;SDS011;25571;47.876;10.642;2023-03-01T09:18:38;22.20;;;14.52;;
39898;SDS011;25571;47.876;10.642;2023-03-01T09:21:07;22.15;;;14.50;;
39898;SDS011;25571;47.876;10.642;2023-03-01T09:23:35;22.48;;;15.13;;
39898;SDS011;25571;47.876;10.642;2023-03-01T09:26:03;21.27;;;13.85;;
39898;SDS011;25571;47.876;10.642;2023-03-01T09:28:34;20.40;;;13.77;;
39898;SDS011;25571;47.876;10.642;2023-03-01T09:31:01;18.38;;;12.68;;
39898;SDS011;25571;47.876;10.642;2023-03-01T09:33:28;21.00;;;14.32;;
39898;SDS011;25571;47.876;10.642;2023-03-01T09:36:04;22.08;;;15.07;;
39898;SDS011;25571;47.876;10.642;2023-03-01T09:38:32;23.75;;;14.82;;
39898;SDS011;25571;47.876;10.642;2023-03-01T09:40:59;20.48;;;13.57;;
39898;SDS011;25571;47.876;10.642;2023-03-01T09:43:30;20.00;;;14.18;;
39898;SDS011;25571;47.876;10.642;2023-03-01T09:46:00;24.15;;;15.35;;
39898;SDS011;25571;47.876;10.642;2023-03-01T09:48:33;23.75;;;16.15;;
39898;SDS011;25571;47.876;10.642;2023-03-01T09:51:12;19.60;;;13.07;;
39898;SDS011;25571;47.876;10.642;2023-03-01T09:53:44;20.45;;;14.75;;
39898;SDS011;25571;47.876;10.642;2023-03-01T09:56:17;21.40;;;14.43;;
39898;SDS011;25571;47.876;10.642;2023-03-01T10:01:40;25.77;;;14.73;;
39898;SDS011;25571;47.876;10.642;2023-03-01T10:07:12;20.08;;;13.55;;
39898;SDS011;25571;47.876;10.642;2023-03-01T10:09:51;21.75;;;14.07;;
39898;SDS011;25571;47.876;10.642;2023-03-01T10:12:22;18.90;;;13.57;;
39898;SDS011;25571;47.876;10.642;2023-03-01T10:17:37;14.18;;;9.35;;
39898;SDS011;25571;47.876;10.642;2023-03-01T10:22:40;18.52;;;13.25;;
39898;SDS011;25571;47.876;10.642;2023-03-01T10:25:08;22.90;;;15.88;;
39898;SDS011;25571;47.876;10.642;2023-03-01T10:27:42;23.50;;;15.70;;
39898;SDS011;25571;47.876;10.642;2023-03-01T10:30:21;23.25;;;15.43;;
39898;SDS011;25571;47.876;10.642;2023-03-01T10:33:08;22.73;;;15.02;;
39898;SDS011;25571;47.876;10.642;2023-03-01T10:35:47;23.40;;;15.57;;
39898;SDS011;25571;47.876;10.642;2023-03-01T10:38:13;21.23;;;15.50;;
39898;SDS011;25571;47.876;10.642;2023-03-01T10:40:53;20.88;;;14.35;;
39898;SDS011;25571;47.876;10.642;2023-03-01T10:43:46;22.10;;;14.75;;
39898;SDS011;25571;47.876;10.642;2023-03-01T10:46:44;20.98;;;15.00;;
39898;SDS011;25571;47.876;10.642;2023-03-01T10:49:19;20.27;;;14.45;;
39898;SDS011;25571;47.876;10.642;2023-03-01T10:51:50;22.60;;;14.98;;
39898;SDS011;25571;47.876;10.642;2023-03-01T10:54:27;20.30;;;13.70;;
39898;SDS011;25571;47.876;10.642;2023-03-01T10:57:24;22.85;;;15.43;;
39898;SDS011;25571;47.876;10.642;2023-03-01T11:00:23;24.40;;;14.25;;
39898;SDS011;25571;47.876;10.642;2023-03-01T11:05:34;21.27;;;13.52;;
39898;SDS011;25571;47.876;10.642;2023-03-01T11:08:00;24.80;;;16.45;;
39898;SDS011;25571;47.876;10.642;2023-03-01T11:10:29;18.38;;;13.57;;
39898;SDS011;25571;47.876;10.642;2023-03-01T11:13:07;20.40;;;14.80;;
39898;SDS011;25571;47.876;10.642;2023-03-01T11:15:39;20.75;;;14.55;;
39898;SDS011;25571;47.876;10.642;2023-03-01T11:18:04;22.13;;;14.90;;
39898;SDS011;25571;47.876;10.642;2023-03-01T11:20:46;20.88;;;14.55;;
39898;SDS011;25571;47.876;10.642;2023-03-01T11:25:42;22.70;;;15.65;;
39898;SDS011;25571;47.876;10.642;2023-03-01T11:28:12;21.13;;;14.88;;
39898;SDS011;25571;47.876;10.642;2023-03-01T11:30:58;23.13;;;16.20;;
39898;SDS011;25571;47.876;10.642;2023-03-01T11:33:35;22.92;;;15.13;;
39898;SDS011;25571;47.876;10.642;2023-03-01T11:36:13;20.75;;;14.60;;
39898;SDS011;25571;47.876;10.642;2023-03-01T11:38:53;18.05;;;13.13;;
39898;SDS011;25571;47.876;10.642;2023-03-01T11:41:21;23.05;;;14.85;;
39898;SDS011;25571;47.876;10.642;2023-03-01T11:43:59;20.15;;;13.15;;
39898;SDS011;25571;47.876;10.642;2023-03-01T11:46:34;29.90;;;17.35;;
39898;SDS011;25571;47.876;10.642;2023-03-01T12:00:23;22.73;;;15.48;;
39898;SDS011;25571;47.876;10.642;2023-03-01T12:08:33;19.88;;;14.80;;
39898;SDS011;25571;47.876;10.642;2023-03-01T12:17:04;22.58;;;15.30;;
39898;SDS011;25571;47.876;10.642;2023-03-01T12:25:41;24.02;;;15.98;;
39898;SDS011;25571;47.876;10.642;2023-03-01T12:28:17;23.30;;;14.80;;
39898;SDS011;25571;47.876;10.642;2023-03-01T12:44:50;23.13;;;14.52;;
39898;SDS011;25571;47.876;10.642;2023-03-01T12:53:53;22.15;;;15.63;;
39898;SDS011;25571;47.876;10.642;2023-03-01T12:56:10;22.25;;;15.35;;
39898;SDS011;25571;47.876;10.642;2023-03-01T13:09:26;21.63;;;14.45;;
39898;SDS011;25571;47.876;10.642;2023-03-01T13:17:47;24.48;;;15.75;;
39898;SDS011;25571;47.876;10.642;2023-03-01T13:20:18;26.45;;;16.48;;
39898;SDS011;25571;47.876;10.642;2023-03-01T13:22:59;24.13;;;15.85;;
39898;SDS011;25571;47.876;10.642;2023-03-01T13:25:27;21.90;;;15.43;;
39898;SDS011;25571;47.876;10.642;2023-03-01T13:27:52;24.02;;;16.40;;
39898;SDS011;25571;47.876;10.642;2023-03-01T13:30:56;22.33;;;15.23;;
39898;SDS011;25571;47.876;10.642;2023-03-01T13:35:53;25.42;;;17.52;;
39898;SDS011;25571;47.876;10.642;2023-03-01T13:41:14;28.65;;;17.63;;
39898;SDS011;25571;47.876;10.642;2023-03-01T13:43:41;24.25;;;15.88;;
39898;SDS011;25571;47.876;10.642;2023-03-01T13:46:16;24.80;;;16.30;;
39898;SDS011;25571;47.876;10.642;2023-03-01T13:48:46;25.50;;;16.75;;
39898;SDS011;25571;47.876;10.642;2023-03-01T13:51:23;24.08;;;15.10;;
39898;SDS011;25571;47.876;10.642;2023-03-01T13:53:51;23.23;;;15.88;;
39898;SDS011;25571;47.876;10.642;2023-03-01T13:56:24;24.65;;;16.35;;
39898;SDS011;25571;47.876;10.642;2023-03-01T13:58:58;23.30;;;15.65;;
39898;SDS011;25571;47.876;10.642;2023-03-01T14:01:31;24.15;;;15.52;;
39898;SDS011;25571;47.876;10.642;2023-03-01T14:04:01;22.73;;;14.93;;
39898;SDS011;25571;47.876;10.642;2023-03-01T14:06:29;23.40;;;14.88;;
39898;SDS011;25571;47.876;10.642;2023-03-01T14:09:10;27.08;;;17.10;;
39898;SDS011;25571;47.876;10.642;2023-03-01T14:11:49;25.35;;;16.40;;
39898;SDS011;25571;47.876;10.642;2023-03-01T14:14:40;26.95;;;16.23;;
39898;SDS011;25571;47.876;10.642;2023-03-01T14:17:20;24.15;;;16.10;;
39898;SDS011;25571;47.876;10.642;2023-03-01T14:19:47;22.80;;;16.13;;
39898;SDS011;25571;47.876;10.642;2023-03-01T14:24:57;23.88;;;15.77;;
39898;SDS011;25571;47.876;10.642;2023-03-01T14:27:43;23.33;;;16.33;;
39898;SDS011;25571;47.876;10.642;2023-03-01T14:30:22;25.85;;;17.13;;
39898;SDS011;25571;47.876;10.642;2023-03-01T14:32:55;24.98;;;16.88;;
39898;SDS011;25571;47.876;10.642;2023-03-01T14:35:27;22.98;;;14.75;;
39898;SDS011;25571;47.876;10.642;2023-03-01T14:37:54;19.30;;;13.30;;
39898;SDS011;25571;47.876;10.642;2023-03-01T14:40:22;22.38;;;13.68;;
39898;SDS011;25571;47.876;10.642;2023-03-01T14:42:48;23.25;;;15.23;;
39898;SDS011;25571;47.876;10.642;2023-03-01T14:45:13;23.55;;;15.25;;
39898;SDS011;25571;47.876;10.642;2023-03-01T14:47:39;21.25;;;14.43;;
39898;SDS011;25571;47.876;10.642;2023-03-01T14:50:09;21.35;;;14.10;;
39898;SDS011;25571;47.876;10.642;2023-03-01T14:52:46;20.38;;;13.48;;
39898;SDS011;25571;47.876;10.642;2023-03-01T14:55:19;21.88;;;13.20;;
39898;SDS011;25571;47.876;10.642;2023-03-01T14:57:49;26.35;;;14.05;;
39898;SDS011;25571;47.876;10.642;2023-03-01T15:00:26;25.55;;;16.75;;
39898;SDS011;25571;47.876;10.642;2023-03-01T15:02:54;24.48;;;16.23;;
39898;SDS011;25571;47.876;10.642;2023-03-01T15:05:31;27.75;;;17.83;;
39898;SDS011;25571;47.876;10.642;2023-03-01T15:07:58;25.65;;;18.10;;
39898;SDS011;25571;47.876;10.642;2023-03-01T15:10:27;28.70;;;17.98;;
39898;SDS011;25571;47.876;10.642;2023-03-01T15:12:54;27.40;;;18.50;;
39898;SDS011;25571;47.876;10.642;2023-03-01T15:17:55;25.75;;;16.40;;
39898;SDS011;25571;47.876;10.642;2023-03-01T15:20:24;33.05;;;18.65;;
39898;SDS011;25571;47.876;10.642;2023-03-01T15:22:54;25.08;;;17.10;;
39898;SDS011;25571;47.876;10.642;2023-03-01T15:25:24;30.85;;;18.08;;
39898;SDS011;25571;47.876;10.642;2023-03-01T15:27:52;26.85;;;18.15;;
39898;SDS011;25571;47.876;10.642;2023-03-01T15:33:15;27.40;;;17.77;;
39898;SDS011;25571;47.876;10.642;2023-03-01T15:35:44;25.48;;;16.45;;
39898;SDS011;25571;47.876;10.642;2023-03-01T15:41:22;27.85;;;18.48;;
39898;SDS011;25571;47.876;10.642;2023-03-01T15:44:16;26.50;;;17.98;;
39898;SDS011;25571;47.876;10.642;2023-03-01T15:46:46;28.27;;;18.13;;
39898;SDS011;25571;47.876;10.642;2023-03-01T15:49:24;26.55;;;15.82;;
39898;SDS011;25571;47.876;10.642;2023-03-01T15:51:59;23.52;;;15.43;;
39898;SDS011;25571;47.876;10.642;2023-03-01T15:54:25;26.05;;;15.98;;
39898;SDS011;25571;47.876;10.642;2023-03-01T15:56:52;27.83;;;16.80;;
39898;SDS011;25571;47.876;10.642;2023-03-01T15:59:18;24.00;;;15.25;;
39898;SDS011;25571;47.876;10.642;2023-03-01T16:01:44;26.95;;;16.75;;
39898;SDS011;25571;47.876;10.642;2023-03-01T16:04:14;24.05;;;16.60;;
39898;SDS011;25571;47.876;10.642;2023-03-01T16:06:49;26.38;;;17.38;;
39898;SDS011;25571;47.876;10.642;2023-03-01T16:09:19;22.17;;;15.30;;
39898;SDS011;25571;47.876;10.642;2023-03-01T16:11:48;24.55;;;14.70;;
39898;SDS011;25571;47.876;10.642;2023-03-01T16:14:14;26.27;;;15.63;;
39898;SDS011;25571;47.876;10.642;2023-03-01T16:16:41;22.40;;;15.23;;